Time;durP1;ratioP1;P1;durP2;ratioP2;P2;SDS_P1;SDS_P2;PMS_P1;PMS_P2;Temp;Humidity;BMP_temperature;BMP_pressure;BME280_temperature;BME280_humidity;BME280_pressure;Samples;Min_cycle;Max_cycle;Signal;HPM_P1;HPM_P2
2021/10/07 00:02:01;;;;;;;16.30;12.30;;;;;;;11.47;92.01;97276.58;115715;1199;27472;-83
2021/10/07 00:04:33;;;;;;;16.60;13.20;;;;;;;11.46;92.29;97277.44;115600;1199;26330;-83
2021/10/07 00:07:04;;;;;;;16.90;13.10;;;;;;;11.53;92.51;97276.95;115217;1200;66334;-82
2021/10/07 00:09:38;;;;;;;18.70;12.80;;;;;;;11.61;92.59;97276.03;115465;1199;27032;-82
2021/10/07 00:12:10;;;;;;;15.30;12.00;;;;;;;11.67;92.57;97276.49;115500;1199;31931;-82
2021/10/07 00:14:41;;;;;;;15.30;12.20;;;;;;;11.70;92.47;97273.53;115267;1200;25765;-82
2021/10/07 00:17:12;;;;;;;16.40;11.90;;;;;;;11.66;92.42;97274.52;115536;1199;36454;-82
2021/10/07 00:19:43;;;;;;;13.70;11.50;;;;;;;11.57;92.48;97267.48;115600;1198;28099;-83
2021/10/07 00:22:14;;;;;;;20.50;12.20;;;;;;;11.49;92.55;97268.08;115665;1199;32587;-82
2021/10/07 00:24:45;;;;;;;15.20;11.50;;;;;;;11.48;92.50;97268.83;115655;1199;29257;-82
2021/10/07 00:27:15;;;;;;;18.50;12.00;;;;;;;11.49;92.60;97268.23;115588;1198;31170;-82
2021/10/07 00:29:47;;;;;;;18.70;13.10;;;;;;;11.41;92.37;97275.47;115660;1199;25668;-82
2021/10/07 00:32:20;;;;;;;16.50;12.40;;;;;;;11.31;92.44;97275.75;115294;1199;29028;-83
2021/10/07 00:35:07;;;;;;;18.00;14.10;;;;;;;11.25;92.58;97276.05;115619;1199;25988;-82
2021/10/07 00:40:27;;;;;;;21.90;13.50;;;;;;;11.19;92.94;97277.38;115622;1199;30624;-82
2021/10/07 00:42:57;;;;;;;17.30;14.10;;;;;;;11.18;92.95;97278.08;115448;1199;27918;-82
2021/10/07 00:45:28;;;;;;;19.50;14.90;;;;;;;11.21;93.22;97278.34;115621;1198;28824;-82
2021/10/07 00:47:59;;;;;;;21.30;14.30;;;;;;;11.29;93.39;97276.55;115616;1192;52868;-82
2021/10/07 00:50:30;;;;;;;18.30;13.90;;;;;;;11.36;93.35;97277.33;115533;1199;29255;-82
2021/10/07 00:53:01;;;;;;;18.40;13.40;;;;;;;11.41;93.28;97277.71;115501;1199;30468;-82
2021/10/07 00:55:32;;;;;;;16.70;13.10;;;;;;;11.46;93.36;97277.75;115585;1198;30041;-82
2021/10/07 00:58:03;;;;;;;14.10;12.00;;;;;;;11.50;93.29;97277.63;115495;1199;57144;-82
2021/10/07 01:00:33;;;;;;;18.00;13.20;;;;;;;11.54;93.22;97278.92;115581;1198;29751;-80
2021/10/07 01:03:04;;;;;;;18.90;13.90;;;;;;;11.57;93.19;97274.40;115522;1199;27259;-82
2021/10/07 01:05:35;;;;;;;15.40;13.40;;;;;;;11.59;93.16;97278.96;115661;1198;31221;-81
2021/10/07 01:08:06;;;;;;;19.60;14.80;;;;;;;11.58;93.04;97273.07;115538;1199;30671;-82
2021/10/07 01:10:38;;;;;;;19.90;13.70;;;;;;;11.55;92.92;97273.55;115441;1199;32756;-82
2021/10/07 01:13:12;;;;;;;17.10;14.20;;;;;;;11.50;92.76;97269.67;115326;1200;27155;-82
2021/10/07 01:15:44;;;;;;;16.80;12.80;;;;;;;11.46;92.80;97270.27;115611;1193;52955;-82
2021/10/07 01:18:14;;;;;;;18.60;13.30;;;;;;;11.44;92.73;97271.44;115616;1199;29386;-82
2021/10/07 01:20:45;;;;;;;17.00;13.20;;;;;;;11.43;92.74;97265.98;114288;1199;1553034;-81
2021/10/07 01:23:16;;;;;;;16.40;12.70;;;;;;;11.47;92.95;97267.30;115474;1199;62393;-83
2021/10/07 01:25:47;;;;;;;15.70;12.10;;;;;;;11.49;92.88;97272.86;115601;1199;52666;-82
2021/10/07 01:28:16;;;;;;;;;;;;;;;11.51;92.90;97273.49;115492;1199;61716;-81
2021/10/07 01:30:47;;;;;;;14.00;11.20;;;;;;;11.47;92.88;97276.21;115389;1199;62533;-83
2021/10/07 01:33:18;;;;;;;14.80;11.80;;;;;;;11.46;92.93;97270.64;114570;1199;1239833;-83
2021/10/07 01:35:48;;;;;;;15.60;11.70;;;;;;;11.47;93.03;97272.27;115596;1199;53502;-82
2021/10/07 01:38:19;;;;;;;15.00;12.30;;;;;;;11.52;93.16;97269.50;115586;1199;55252;-82
2021/10/07 01:40:50;;;;;;;16.40;12.30;;;;;;;11.57;93.18;97271.69;115221;1199;53969;-83
2021/10/07 01:43:21;;;;;;;15.20;12.10;;;;;;;11.60;93.14;97272.69;115145;1199;59617;-82
2021/10/07 01:45:53;;;;;;;15.80;11.70;;;;;;;11.64;93.07;97272.10;115369;1199;28765;-82
2021/10/07 01:48:24;;;;;;;17.10;12.60;;;;;;;11.66;93.04;97266.67;115453;1199;50684;-82
2021/10/07 01:50:55;;;;;;;14.60;10.50;;;;;;;11.67;92.99;97271.61;115578;1198;48394;-82
2021/10/07 01:53:26;;;;;;;14.50;12.10;;;;;;;11.70;92.94;97277.25;115549;1191;68965;-83
2021/10/07 01:55:56;;;;;;;15.70;11.40;;;;;;;11.73;92.99;97276.02;115395;1199;56159;-81
2021/10/07 01:58:27;;;;;;;14.60;11.70;;;;;;;11.74;92.89;97278.45;115548;1198;53053;-82
2021/10/07 02:00:58;;;;;;;14.60;11.70;;;;;;;11.74;92.73;97278.14;115661;1199;26109;-82
2021/10/07 02:03:29;;;;;;;14.50;11.50;;;;;;;11.74;92.73;97279.46;115254;1200;53513;-81
2021/10/07 02:06:00;;;;;;;15.00;12.10;;;;;;;11.72;92.58;97282.66;115403;1199;78580;-82
2021/10/07 02:08:29;;;;;;;;;;;;;;;11.72;92.66;97283.67;115614;1193;59889;-82
2021/10/07 02:11:00;;;;;;;14.30;10.70;;;;;;;11.74;92.80;97281.42;115630;1183;28368;-82
2021/10/07 02:13:31;;;;;;;15.20;11.50;;;;;;;11.74;92.78;97281.33;115583;1197;67910;-82
2021/10/07 02:16:02;;;;;;;14.70;11.60;;;;;;;11.71;92.59;97284.15;115662;1199;48301;-81
2021/10/07 02:18:33;;;;;;;14.90;10.80;;;;;;;11.65;92.49;97286.91;115638;1199;36190;-80
2021/10/07 02:21:04;;;;;;;15.10;11.50;;;;;;;11.58;92.54;97292.30;115409;1192;47375;-82
2021/10/07 02:23:35;;;;;;;14.60;11.60;;;;;;;11.54;92.60;97289.31;115554;1198;39966;-81
2021/10/07 02:26:06;;;;;;;14.20;11.00;;;;;;;11.58;92.82;97290.33;115299;1199;62797;-81
2021/10/07 02:28:37;;;;;;;14.30;10.90;;;;;;;11.62;93.03;97287.29;115423;1199;62154;-82
2021/10/07 02:31:08;;;;;;;15.70;11.70;;;;;;;11.62;92.96;97291.54;115426;1199;50091;-82
2021/10/07 02:33:39;;;;;;;16.20;11.90;;;;;;;11.65;93.09;97294.13;115553;1199;25717;-82
2021/10/07 02:36:09;;;;;;;13.10;11.20;;;;;;;11.69;93.11;97295.15;115396;1192;28297;-82
2021/10/07 02:38:40;;;;;;;14.10;10.50;;;;;;;11.71;93.15;97298.45;115587;1199;28996;-83
2021/10/07 02:41:09;;;;;;;;;;;;;;;11.71;93.10;97299.77;115645;1198;27093;-83
2021/10/07 02:43:40;;;;;;;13.90;10.80;;;;;;;11.67;92.95;97303.27;115576;1199;30014;-83
2021/10/07 02:46:09;;;;;;;;;;;;;;;11.60;92.92;97306.36;115582;1199;27867;-82
2021/10/07 02:48:41;;;;;;;14.40;10.30;;;;;;;11.51;92.85;97305.25;115632;1192;26674;-82
2021/10/07 02:51:12;;;;;;;15.10;11.90;;;;;;;11.44;92.95;97307.65;115570;1199;28773;-82
2021/10/07 02:53:43;;;;;;;15.00;11.70;;;;;;;11.36;92.92;97310.30;115534;1199;25194;-82
2021/10/07 02:56:14;;;;;;;13.90;11.10;;;;;;;11.31;93.05;97307.60;115560;1199;28947;-83
2021/10/07 02:58:44;;;;;;;17.50;13.10;;;;;;;11.31;93.35;97310.26;115565;1199;27908;-83
2021/10/07 03:01:13;;;;;;;;;;;;;;;11.31;93.48;97314.08;115579;1199;28569;-82
2021/10/07 03:03:44;;;;;;;16.20;11.60;;;;;;;11.31;93.59;97316.20;115591;1199;27442;-83
2021/10/07 03:06:13;;;;;;;;;;;;;;;11.32;93.52;97319.48;115565;1198;37732;-82
2021/10/07 03:08:44;;;;;;;15.50;11.80;;;;;;;11.35;93.64;97318.95;115558;1199;26559;-82
2021/10/07 03:11:16;;;;;;;16.40;11.80;;;;;;;11.39;93.69;97317.20;115516;1199;30419;-82
2021/10/07 03:13:46;;;;;;;18.40;12.20;;;;;;;11.45;93.82;97316.95;115529;1199;25450;-82
2021/10/07 03:16:17;;;;;;;16.10;12.10;;;;;;;11.51;93.86;97319.16;115566;1199;26419;-82
2021/10/07 03:18:48;;;;;;;14.80;11.80;;;;;;;11.53;93.89;97322.87;115547;1199;45282;-82
2021/10/07 03:21:18;;;;;;;15.20;11.10;;;;;;;11.58;93.92;97326.39;115546;1198;30461;-82
2021/10/07 03:23:49;;;;;;;17.20;12.10;;;;;;;11.61;93.87;97328.14;115434;1193;29076;-83
2021/10/07 03:26:20;;;;;;;14.70;11.40;;;;;;;11.65;93.94;97327.11;115499;1199;30451;-82
2021/10/07 03:28:51;;;;;;;17.10;12.20;;;;;;;11.68;93.90;97329.52;115459;1199;26426;-83
2021/10/07 03:31:20;;;;;;;;;;;;;;;11.70;93.84;97334.26;115461;1199;28793;-82
2021/10/07 03:33:50;;;;;;;14.00;11.00;;;;;;;11.65;93.61;97336.67;115452;1199;34282;-82
2021/10/07 03:36:21;;;;;;;16.10;11.60;;;;;;;11.57;93.50;97338.77;115450;1199;27013;-82
2021/10/07 03:38:52;;;;;;;15.90;11.30;;;;;;;11.58;93.71;97339.09;115436;1199;30841;-83
2021/10/07 03:41:23;;;;;;;15.90;11.30;;;;;;;11.62;93.88;97340.03;115456;1197;28154;-82
2021/10/07 03:43:53;;;;;;;14.20;11.90;;;;;;;11.62;93.83;97337.96;115367;1199;28289;-82
2021/10/07 03:46:24;;;;;;;15.00;11.50;;;;;;;11.62;93.87;97336.63;115558;1199;27806;-83
2021/10/07 03:48:55;;;;;;;17.30;12.20;;;;;;;11.58;93.76;97337.65;115413;1199;27580;-84
2021/10/07 03:51:25;;;;;;;16.70;11.60;;;;;;;11.54;93.84;97340.78;115445;1199;30879;-82
2021/10/07 03:53:56;;;;;;;17.50;12.60;;;;;;;11.50;93.83;97342.36;115539;1197;27588;-82
2021/10/07 03:56:27;;;;;;;14.60;11.40;;;;;;;11.45;93.97;97344.83;115591;1199;26815;-82
2021/10/07 03:58:58;;;;;;;14.10;11.60;;;;;;;11.44;94.04;97348.65;115618;1199;29094;-82
2021/10/07 04:01:29;;;;;;;14.50;12.00;;;;;;;11.48;94.14;97350.49;115500;1198;31221;-83
2021/10/07 04:04:00;;;;;;;16.10;12.20;;;;;;;11.45;93.99;97349.61;115604;1199;30468;-83
2021/10/07 04:06:31;;;;;;;15.70;11.50;;;;;;;11.39;93.88;97353.26;115586;1192;28761;-82
2021/10/07 04:09:01;;;;;;;14.10;12.10;;;;;;;11.34;93.90;97352.35;115633;1198;27090;-82
2021/10/07 04:11:32;;;;;;;24.60;11.70;;;;;;;11.27;93.98;97354.41;115611;1195;41048;-84
2021/10/07 04:14:03;;;;;;;16.10;12.30;;;;;;;11.21;94.00;97352.28;115568;1198;39110;-82
2021/10/07 04:16:34;;;;;;;17.40;12.00;;;;;;;11.23;94.31;97354.29;115550;1198;28279;-80
2021/10/07 04:19:05;;;;;;;16.60;11.50;;;;;;;11.31;94.62;97359.30;115524;1192;27765;-82
2021/10/07 04:21:36;;;;;;;13.70;11.70;;;;;;;11.39;94.76;97359.79;115509;1192;27957;-82
2021/10/07 04:24:07;;;;;;;16.30;12.10;;;;;;;11.45;94.76;97364.41;115173;1200;28828;-81
2021/10/07 04:26:37;;;;;;;15.30;12.10;;;;;;;11.48;94.64;97369.56;115450;1192;24744;-81
2021/10/07 04:29:09;;;;;;;14.60;11.60;;;;;;;11.48;94.48;97375.09;115291;1193;26401;-82
2021/10/07 04:31:40;;;;;;;15.10;11.80;;;;;;;11.47;94.46;97371.95;115434;1198;33082;-82
2021/10/07 04:34:11;;;;;;;15.60;11.70;;;;;;;11.52;94.57;97373.11;115475;1192;27873;-82
2021/10/07 04:36:41;;;;;;;15.20;11.90;;;;;;;11.54;94.53;97375.89;115413;1199;27889;-82
2021/10/07 04:39:12;;;;;;;16.20;12.90;;;;;;;11.55;94.40;97374.35;115556;1199;25773;-82
2021/10/07 04:41:43;;;;;;;16.90;12.40;;;;;;;11.50;94.26;97375.03;115522;1199;27528;-82
2021/10/07 04:44:14;;;;;;;15.50;12.60;;;;;;;11.50;94.38;97379.70;115423;1199;27440;-82
2021/10/07 04:46:45;;;;;;;17.00;12.30;;;;;;;11.52;94.51;97378.53;115442;1198;26414;-82
2021/10/07 04:49:16;;;;;;;17.60;12.80;;;;;;;11.57;94.58;97380.25;115131;1200;29515;-84
2021/10/07 04:51:47;;;;;;;15.10;13.20;;;;;;;11.62;94.66;97381.89;115561;1192;26630;-83
2021/10/07 04:54:17;;;;;;;19.90;13.10;;;;;;;11.63;94.58;97386.30;115535;1199;26744;-83
2021/10/07 04:56:48;;;;;;;17.30;13.80;;;;;;;11.64;94.63;97389.11;115476;1199;28960;-83
2021/10/07 04:59:19;;;;;;;16.90;13.50;;;;;;;11.66;94.58;97389.84;115517;1199;32944;-82
2021/10/07 05:01:50;;;;;;;17.10;12.90;;;;;;;11.65;94.46;97393.09;115509;1199;27864;-84
2021/10/07 05:04:21;;;;;;;18.40;13.80;;;;;;;11.68;94.55;97396.07;115376;1191;25269;-82
2021/10/07 05:06:52;;;;;;;16.80;13.00;;;;;;;11.68;94.41;97401.33;115481;1199;27410;-83
2021/10/07 05:09:23;;;;;;;17.10;12.20;;;;;;;11.68;94.45;97402.60;115471;1199;26299;-82
2021/10/07 05:11:54;;;;;;;18.10;13.50;;;;;;;11.65;94.24;97406.52;115409;1192;35238;-82
2021/10/07 05:14:25;;;;;;;15.70;13.10;;;;;;;11.65;94.34;97408.44;115389;1199;27966;-83
2021/10/07 05:16:56;;;;;;;18.70;14.00;;;;;;;11.68;94.39;97409.88;115335;1199;31929;-83
2021/10/07 05:19:28;;;;;;;17.30;14.30;;;;;;;11.69;94.27;97407.92;115332;1200;27754;-82
2021/10/07 05:21:59;;;;;;;18.30;12.50;;;;;;;11.64;94.02;97411.30;115474;1199;63418;-83
2021/10/07 05:24:30;;;;;;;17.10;12.10;;;;;;;11.61;93.98;97411.00;115537;1193;32424;-83
2021/10/07 05:27:01;;;;;;;16.00;12.20;;;;;;;11.63;94.10;97405.79;115506;1193;29628;-83
2021/10/07 05:29:33;;;;;;;18.00;12.70;;;;;;;11.65;94.10;97407.38;115464;1192;32691;-82
2021/10/07 05:32:05;;;;;;;15.80;12.10;;;;;;;11.66;94.03;97411.63;115458;1199;25803;-82
2021/10/07 05:34:36;;;;;;;18.80;15.90;;;;;;;11.69;94.09;97415.63;115405;1199;48765;-82
2021/10/07 05:37:07;;;;;;;18.70;14.50;;;;;;;11.70;93.88;97417.45;115341;1199;33704;-82
2021/10/07 05:39:38;;;;;;;15.70;12.70;;;;;;;11.70;93.86;97417.71;115469;1199;35899;-82
2021/10/07 05:42:10;;;;;;;16.30;12.60;;;;;;;11.72;93.83;97417.39;115448;1192;26672;-82
2021/10/07 05:44:41;;;;;;;64.10;40.70;;;;;;;11.73;93.66;97419.52;115297;1194;55229;-82
2021/10/07 05:47:12;;;;;;;23.60;17.50;;;;;;;11.74;93.50;97416.37;115446;1199;77565;-82
2021/10/07 05:49:43;;;;;;;16.60;12.40;;;;;;;11.72;93.35;97412.66;115461;1199;28780;-82
2021/10/07 05:52:14;;;;;;;17.00;11.20;;;;;;;11.74;93.42;97415.30;115472;1192;29346;-82
2021/10/07 05:54:44;;;;;;;16.90;11.70;;;;;;;11.78;93.45;97420.63;115471;1199;28787;-82
2021/10/07 05:57:15;;;;;;;15.40;11.40;;;;;;;11.80;93.39;97418.25;115467;1199;28146;-83
2021/10/07 05:59:46;;;;;;;15.40;11.20;;;;;;;11.82;93.37;97422.95;115433;1198;28969;-82
2021/10/07 06:02:17;;;;;;;15.00;11.00;;;;;;;11.83;93.35;97419.28;115284;1199;61702;-83
2021/10/07 06:04:48;;;;;;;15.00;10.30;;;;;;;11.85;93.36;97421.14;115478;1192;27655;-82
2021/10/07 06:07:17;;;;;;;;;;;;;;;11.88;93.31;97419.38;115485;1192;28986;-82
2021/10/07 06:09:48;;;;;;;15.20;10.70;;;;;;;11.92;93.16;97417.09;115344;1199;30437;-83
2021/10/07 06:12:18;;;;;;;14.90;10.20;;;;;;;11.95;92.92;97420.21;115423;1199;29016;-82
2021/10/07 06:14:49;;;;;;;12.90;10.40;;;;;;;11.99;92.91;97418.42;115412;1199;27354;-82
2021/10/07 06:17:20;;;;;;;13.80;9.80;;;;;;;12.03;92.76;97420.01;115488;1199;26393;-81
2021/10/07 06:19:55;;;;;;;14.50;9.70;;;;;;;12.06;92.59;97422.86;115509;1199;29172;-82
2021/10/07 06:22:26;;;;;;;15.30;11.80;;;;;;;12.08;92.35;97427.70;115511;1191;25723;-82
2021/10/07 06:24:57;;;;;;;14.00;10.80;;;;;;;11.99;91.60;97425.06;115531;1192;32979;-82
2021/10/07 06:27:30;;;;;;;14.00;10.80;;;;;;;11.94;91.66;97427.50;115464;1199;27539;-82
2021/10/07 06:30:01;;;;;;;12.10;9.00;;;;;;;11.95;91.50;97431.21;115614;1199;24686;-83
2021/10/07 06:32:30;;;;;;;;;;;;;;;11.93;91.37;97427.71;115640;1199;35604;-81
2021/10/07 06:35:01;;;;;;;18.50;12.90;;;;;;;11.92;91.40;97429.58;115545;1199;28354;-82
2021/10/07 06:37:31;;;;;;;26.10;17.00;;;;;;;11.91;91.39;97433.08;115544;1199;26118;-81
2021/10/07 06:40:03;;;;;;;24.60;15.50;;;;;;;11.91;91.49;97439.41;111256;1199;5015227;-82
2021/10/07 06:42:33;;;;;;;16.10;11.10;;;;;;;11.93;91.45;97445.83;115392;1193;30384;-82
2021/10/07 06:45:06;;;;;;;31.30;19.30;;;;;;;11.92;91.52;97445.41;115504;1198;26312;-80
2021/10/07 06:47:38;;;;;;;29.10;18.30;;;;;;;11.95;91.64;97447.48;115496;1199;31647;-82
2021/10/07 06:50:11;;;;;;;22.90;14.10;;;;;;;11.96;91.67;97446.69;115497;1199;30202;-82
2021/10/07 06:52:42;;;;;;;18.40;11.80;;;;;;;11.97;91.64;97446.42;115444;1199;25602;-82
2021/10/07 06:55:13;;;;;;;14.40;10.70;;;;;;;12.00;91.67;97447.02;115506;1199;30317;-82
2021/10/07 06:57:44;;;;;;;12.40;9.50;;;;;;;12.01;91.52;97446.23;115492;1192;31172;-82
2021/10/07 07:00:16;;;;;;;16.00;10.80;;;;;;;12.03;91.53;97446.48;115513;1199;70479;-82
2021/10/07 07:02:46;;;;;;;14.20;9.80;;;;;;;12.04;91.48;97451.20;115536;1199;26454;-81
2021/10/07 07:05:17;;;;;;;15.60;10.50;;;;;;;12.06;91.41;97444.14;115501;1192;31768;-81
2021/10/07 07:07:46;;;;;;;;;;;;;;;12.09;91.44;97442.73;115516;1199;32796;-81
2021/10/07 07:10:18;;;;;;;15.40;10.20;;;;;;;12.09;91.34;97445.17;115565;1199;31626;-81
2021/10/07 07:12:51;;;;;;;18.40;11.50;;;;;;;12.10;91.14;97446.41;115503;1192;30017;-82
2021/10/07 07:15:22;;;;;;;15.50;11.50;;;;;;;12.09;90.87;97449.81;115516;1192;62439;-81
2021/10/07 07:17:53;;;;;;;16.70;12.50;;;;;;;12.14;91.03;97455.30;115294;1200;35327;-81
2021/10/07 07:20:22;;;;;;;;;;;;;;;12.21;91.09;97453.21;115538;1198;39925;-79
2021/10/07 07:22:53;;;;;;;13.30;10.20;;;;;;;12.24;90.99;97459.48;115565;1199;29148;-82
2021/10/07 07:25:24;;;;;;;11.90;9.70;;;;;;;12.28;91.03;97457.69;115567;1192;39540;-81
2021/10/07 07:27:55;;;;;;;11.70;9.20;;;;;;;12.34;91.06;97460.48;115487;1199;33278;-81
2021/10/07 07:30:25;;;;;;;14.30;9.40;;;;;;;12.38;90.99;97455.32;115551;1199;34860;-81
2021/10/07 07:32:56;;;;;;;16.40;9.40;;;;;;;12.42;90.80;97456.97;115512;1198;28286;-81
2021/10/07 07:35:31;;;;;;;13.70;9.50;;;;;;;12.44;90.67;97459.83;115518;1192;28580;-82
2021/10/07 07:38:04;;;;;;;12.30;9.30;;;;;;;12.43;90.52;97461.91;115583;1199;27621;-81
2021/10/07 07:40:36;;;;;;;14.00;9.60;;;;;;;12.43;90.52;97463.14;115507;1199;30715;-80
2021/10/07 07:43:07;;;;;;;13.00;8.90;;;;;;;12.44;90.32;97463.45;115519;1199;27107;-81
2021/10/07 07:45:38;;;;;;;11.10;8.50;;;;;;;12.40;90.06;97471.23;115480;1199;30666;-80
2021/10/07 07:48:08;;;;;;;14.00;8.30;;;;;;;12.42;89.99;97468.35;115470;1199;47719;-81
2021/10/07 07:50:39;;;;;;;13.90;8.70;;;;;;;12.40;89.73;97474.85;115578;1199;29438;-80
2021/10/07 07:53:11;;;;;;;13.50;8.10;;;;;;;12.40;89.70;97475.33;115448;1199;30633;-80
2021/10/07 07:55:43;;;;;;;13.40;8.30;;;;;;;12.43;89.68;97477.06;115476;1199;26996;-82
2021/10/07 07:58:13;;;;;;;10.80;8.50;;;;;;;12.44;89.24;97479.67;115459;1199;26178;-81
2021/10/07 08:00:44;;;;;;;11.80;8.40;;;;;;;12.44;89.30;97479.20;115501;1199;28678;-82
2021/10/07 08:03:15;;;;;;;11.40;7.70;;;;;;;12.40;89.08;97486.65;115461;1199;75621;-82
2021/10/07 08:05:46;;;;;;;13.90;8.80;;;;;;;12.44;89.32;97484.30;115479;1199;27767;-82
2021/10/07 08:08:17;;;;;;;12.00;8.40;;;;;;;12.51;89.31;97485.56;115489;1199;31529;-81
2021/10/07 08:10:48;;;;;;;11.40;8.10;;;;;;;12.61;89.45;97493.47;115476;1199;25385;-82
2021/10/07 08:13:19;;;;;;;12.70;7.70;;;;;;;12.70;89.37;97494.52;115406;1199;26534;-81
2021/10/07 08:15:51;;;;;;;12.20;9.10;;;;;;;12.73;89.30;97492.86;115476;1199;32865;-82
2021/10/07 08:18:22;;;;;;;13.60;9.00;;;;;;;12.80;89.18;97496.62;115439;1199;43495;-82
2021/10/07 08:20:53;;;;;;;10.20;7.70;;;;;;;12.84;88.92;97494.86;115442;1199;30274;-82
2021/10/07 08:23:28;;;;;;;11.90;7.80;;;;;;;12.86;88.42;97490.59;115497;1199;36271;-82
2021/10/07 08:25:59;;;;;;;12.20;8.20;;;;;;;12.93;88.49;97487.84;115458;1199;31424;-82
2021/10/07 08:28:30;;;;;;;10.50;8.00;;;;;;;13.01;88.27;97482.45;115552;1199;24896;-81
2021/10/07 08:31:00;;;;;;;11.60;7.80;;;;;;;13.08;88.34;97481.09;115523;1199;52014;-81
2021/10/07 08:33:31;;;;;;;11.00;7.70;;;;;;;13.16;88.06;97483.40;115464;1199;25084;-82
2021/10/07 08:36:02;;;;;;;12.70;7.90;;;;;;;13.24;87.72;97488.94;115533;1199;39491;-81
2021/10/07 08:38:33;;;;;;;10.80;7.20;;;;;;;13.30;87.62;97493.97;115495;1195;27240;-82
2021/10/07 08:41:04;;;;;;;12.30;7.50;;;;;;;13.31;87.27;97497.16;115498;1199;32054;-80
2021/10/07 08:43:36;;;;;;;9.60;7.00;;;;;;;13.43;87.28;97495.13;115447;1199;38879;-77
2021/10/07 08:46:11;;;;;;;10.20;6.60;;;;;;;13.56;87.01;97493.56;115364;1199;28181;-81
2021/10/07 08:48:42;;;;;;;10.50;7.00;;;;;;;13.56;85.83;97494.11;115483;1191;32228;-83
2021/10/07 08:51:13;;;;;;;10.50;7.10;;;;;;;13.68;86.13;97488.70;115263;1200;33142;-82
2021/10/07 08:53:44;;;;;;;10.60;7.40;;;;;;;13.83;85.97;97488.39;115415;1199;57814;-82
2021/10/07 08:56:15;;;;;;;10.80;7.40;;;;;;;13.94;85.20;97483.73;115380;1199;84579;-83
2021/10/07 08:58:46;;;;;;;12.30;7.70;;;;;;;14.01;84.71;97481.11;115455;1199;28202;-82
2021/10/07 09:01:37;;;;;;;13.80;7.40;;;;;;;14.08;84.10;97483.95;115395;1199;29152;-83
2021/10/07 09:04:23;;;;;;;9.90;6.30;;;;;;;14.06;83.19;97480.00;115505;1199;33708;-81
2021/10/07 09:06:57;;;;;;;9.70;6.70;;;;;;;13.99;82.19;97480.86;115502;1192;29597;-82
2021/10/07 09:09:29;;;;;;;11.60;7.60;;;;;;;14.00;82.52;97482.89;115411;1199;31318;-83
2021/10/07 09:12:02;;;;;;;11.80;8.10;;;;;;;14.23;83.45;97480.51;115510;1192;29532;-81
2021/10/07 09:14:36;;;;;;;9.70;7.90;;;;;;;14.68;84.09;97479.85;115493;1199;27397;-82
2021/10/07 09:17:09;;;;;;;10.10;7.50;;;;;;;15.08;83.30;97477.38;115380;1192;79879;-81
2021/10/07 09:19:41;;;;;;;13.20;8.40;;;;;;;15.35;82.84;97478.10;115529;1199;28208;-82
2021/10/07 09:22:19;;;;;;;11.20;8.40;;;;;;;15.63;82.18;97479.24;115472;1199;28881;-82
2021/10/07 09:24:52;;;;;;;12.90;8.40;;;;;;;15.51;80.06;97481.20;115482;1192;47150;-82
2021/10/07 09:27:24;;;;;;;10.00;7.80;;;;;;;15.28;79.55;97480.43;115416;1192;51140;-82
2021/10/07 09:29:58;;;;;;;10.00;7.20;;;;;;;15.43;80.49;97486.55;114006;1199;1747361;-82
2021/10/07 09:32:31;;;;;;;13.90;7.90;;;;;;;15.46;79.43;97483.23;115438;1199;59308;-83
2021/10/07 09:35:04;;;;;;;13.20;7.80;;;;;;;15.48;79.46;97487.23;115510;1199;25531;-83
2021/10/07 09:37:37;;;;;;;12.00;8.00;;;;;;;15.53;79.61;97489.73;115560;1199;25914;-82
2021/10/07 09:40:13;;;;;;;10.10;7.50;;;;;;;15.63;79.37;97489.30;115396;1199;26998;-82
2021/10/07 09:42:47;;;;;;;12.60;7.30;;;;;;;15.62;78.97;97489.90;115393;1199;44709;-83
2021/10/07 09:45:19;;;;;;;10.80;7.90;;;;;;;15.70;79.24;97487.91;115412;1199;31856;-82
2021/10/07 09:47:52;;;;;;;10.00;7.40;;;;;;;15.73;78.90;97488.08;115483;1199;27917;-82
2021/10/07 09:50:30;;;;;;;14.30;9.20;;;;;;;15.82;79.13;97483.89;115449;1199;62204;-83
2021/10/07 09:53:03;;;;;;;10.70;8.20;;;;;;;16.07;79.42;97484.37;115582;1199;38968;-82
2021/10/07 09:55:37;;;;;;;11.10;7.70;;;;;;;16.31;79.10;97481.84;115513;1199;55879;-82
2021/10/07 09:58:14;;;;;;;13.70;9.30;;;;;;;16.30;78.58;97481.38;115399;1199;64276;-83
2021/10/07 10:00:46;;;;;;;14.40;9.90;;;;;;;16.22;78.59;97485.63;115474;1192;58968;-82
2021/10/07 10:03:18;;;;;;;12.90;9.60;;;;;;;16.25;78.78;97489.15;115481;1199;49968;-82
2021/10/07 10:05:49;;;;;;;15.00;9.40;;;;;;;16.38;78.93;97480.91;115481;1199;54411;-82
2021/10/07 10:08:22;;;;;;;13.20;9.10;;;;;;;16.40;78.14;97482.05;115513;1199;29333;-83
2021/10/07 10:10:53;;;;;;;14.00;9.70;;;;;;;16.41;78.36;97478.23;115460;1192;50392;-83
2021/10/07 10:13:24;;;;;;;11.90;9.10;;;;;;;16.48;78.09;97481.17;115504;1198;27282;-84
2021/10/07 10:15:54;;;;;;;12.90;9.30;;;;;;;16.60;78.03;97479.84;115543;1199;28230;-82
2021/10/07 10:18:26;;;;;;;12.30;9.20;;;;;;;16.72;77.22;97483.82;115503;1199;61027;-82
2021/10/07 10:20:57;;;;;;;13.00;8.30;;;;;;;16.52;76.24;97479.77;115403;1199;61920;-82
2021/10/07 10:23:30;;;;;;;12.30;9.10;;;;;;;16.38;76.04;97478.73;115370;1199;56654;-83
2021/10/07 10:26:04;;;;;;;12.40;9.00;;;;;;;16.23;75.96;97479.67;115585;1199;71441;-83
2021/10/07 10:28:50;;;;;;;12.10;9.00;;;;;;;16.18;75.94;97479.22;115456;1199;53486;-81
2021/10/07 10:31:33;;;;;;;15.00;9.00;;;;;;;16.10;76.11;97483.10;115479;1199;32853;-83
2021/10/07 10:34:08;;;;;;;11.30;8.40;;;;;;;16.14;76.31;97483.60;115475;1199;61883;-81
2021/10/07 10:36:45;;;;;;;12.40;8.90;;;;;;;15.92;75.07;97486.35;113518;1199;2352197;-82
2021/10/07 10:39:19;;;;;;;14.60;9.10;;;;;;;15.63;75.67;97484.77;115515;1199;55052;-82
2021/10/07 10:41:57;;;;;;;12.20;8.40;;;;;;;15.71;76.57;97485.23;115565;1199;30511;-83
2021/10/07 10:44:51;;;;;;;13.40;9.20;;;;;;;15.80;76.95;97484.46;115557;1193;26607;-82
2021/10/07 10:47:26;;;;;;;12.30;8.00;;;;;;;15.75;76.35;97487.78;115331;1193;29706;-82
2021/10/07 10:50:01;;;;;;;14.10;7.80;;;;;;;15.71;76.17;97491.05;115365;1199;26376;-82
2021/10/07 10:52:34;;;;;;;10.40;7.80;;;;;;;15.84;76.46;97488.73;115532;1199;28220;-82
2021/10/07 10:55:07;;;;;;;10.90;7.20;;;;;;;16.00;76.05;97492.16;115448;1199;34203;-81
2021/10/07 10:57:40;;;;;;;11.10;6.80;;;;;;;16.05;75.50;97494.29;115443;1199;28741;-81
2021/10/07 11:00:22;;;;;;;11.30;6.90;;;;;;;16.18;75.59;97494.24;115497;1199;38873;-82
2021/10/07 11:02:55;;;;;;;10.60;7.40;;;;;;;16.12;74.50;97496.01;115484;1199;27728;-82
2021/10/07 11:05:28;;;;;;;10.00;7.20;;;;;;;16.18;74.92;97498.27;115466;1199;27733;-82
2021/10/07 11:08:19;;;;;;;12.30;7.50;;;;;;;16.38;74.99;97498.91;115500;1193;31260;-82
2021/10/07 11:10:52;;;;;;;10.20;7.80;;;;;;;16.48;74.12;97497.56;115500;1199;26729;-83
2021/10/07 11:13:25;;;;;;;10.60;7.20;;;;;;;16.46;73.93;97493.13;115516;1199;52927;-82
2021/10/07 11:15:59;;;;;;;11.10;7.70;;;;;;;16.35;72.95;97493.38;115520;1199;33494;-82
2021/10/07 11:18:35;;;;;;;11.40;7.40;;;;;;;16.09;72.53;97487.38;115484;1199;28851;-82
2021/10/07 11:21:11;;;;;;;11.60;7.40;;;;;;;15.97;73.23;97482.71;115394;1199;32919;-82
2021/10/07 11:23:43;;;;;;;10.20;7.20;;;;;;;16.16;73.19;97485.13;115483;1199;28288;-82
2021/10/07 11:26:14;;;;;;;8.70;6.90;;;;;;;16.21;73.06;97484.91;115568;1199;23510;-82
2021/10/07 11:28:47;;;;;;;9.10;6.70;;;;;;;16.29;73.30;97485.45;115482;1198;23987;-82
2021/10/07 11:31:20;;;;;;;11.30;6.80;;;;;;;16.43;73.07;97485.86;115516;1199;44139;-82
2021/10/07 11:33:52;;;;;;;9.50;6.90;;;;;;;16.46;73.14;97484.03;115436;1199;26563;-82
2021/10/07 11:36:25;;;;;;;13.30;7.10;;;;;;;16.43;72.58;97483.66;115453;1199;28251;-82
2021/10/07 11:38:56;;;;;;;10.30;6.70;;;;;;;16.25;72.47;97484.40;115463;1199;28046;-83